Time;durP1;ratioP1;P1;durP2;ratioP2;P2;SDS_P1;SDS_P2;PMS_P1;PMS_P2;Temp;Humidity;BMP_temperature;BMP_pressure;BME280_temperature;BME280_humidity;BME280_pressure;Samples;Min_cycle;Max_cycle;Signal;HPM_P1;HPM_P2
2021/07/13 03:23:45;;;;;;;12.18;10.38;;;16.50;99.90;;;;;;6115397;23;20363;31
2021/07/13 05:10:41;;;;;;;11.32;9.52;;;18.00;99.90;;;;;;6126599;23;20391;31
2021/07/13 05:43:17;;;;;;;10.85;8.23;;;19.10;99.90;;;;;;6218504;23;20436;-96
2021/07/13 05:45:45;;;;;;;12.10;7.95;;;19.20;99.90;;;;;;6198041;23;20380;-96
2021/07/13 05:48:20;;;;;;;9.80;8.10;;;19.40;99.90;;;;;;6201618;23;20894;-95
2021/07/13 05:51:02;;;;;;;13.98;7.78;;;19.40;99.90;;;;;;6197619;23;20395;-95
2021/07/13 05:53:43;;;;;;;12.13;7.75;;;19.60;99.90;;;;;;6193933;23;20400;-96
2021/07/13 05:56:11;;;;;;;8.15;7.30;;;19.80;99.90;;;;;;6190751;23;20880;-94
2021/07/13 05:58:38;;;;;;;14.57;8.17;;;20.00;99.90;;;;;;6190769;23;20395;-96
2021/07/13 06:01:06;;;;;;;16.50;7.95;;;20.10;99.90;;;;;;6191105;23;20483;-96
2021/07/13 06:03:34;;;;;;;19.70;8.13;;;20.30;99.90;;;;;;6195414;23;20399;-96
2021/07/13 06:06:01;;;;;;;21.20;8.35;;;20.50;99.90;;;;;;6191438;23;20415;-96
2021/07/13 06:08:28;;;;;;;12.45;7.80;;;20.60;99.90;;;;;;6190582;23;20387;-96
2021/07/13 06:10:55;;;;;;;17.55;7.15;;;20.80;99.90;;;;;;6193729;23;20592;-96
2021/07/13 06:13:23;;;;;;;10.07;7.00;;;20.90;99.90;;;;;;6190762;23;20427;-95
2021/07/13 06:15:50;;;;;;;13.68;6.63;;;21.10;99.90;;;;;;6200986;23;20402;-95
2021/07/13 06:18:18;;;;;;;8.25;7.00;;;21.20;99.90;;;;;;6212265;23;20697;-96
2021/07/13 06:20:46;;;;;;;8.55;6.75;;;21.20;99.90;;;;;;6196973;23;20388;-95
2021/07/13 06:23:14;;;;;;;9.55;6.65;;;21.40;99.90;;;;;;6191023;23;20382;-95
2021/07/13 06:25:42;;;;;;;10.18;6.78;;;21.40;99.90;;;;;;6189958;23;20387;-95
2021/07/13 06:28:11;;;;;;;7.65;6.22;;;21.60;99.90;;;;;;6192268;23;20705;-95
2021/07/13 06:30:39;;;;;;;8.10;6.17;;;21.60;99.90;;;;;;6193580;23;20394;-95
2021/07/13 06:33:07;;;;;;;12.18;7.18;;;21.70;99.90;;;;;;6193968;23;20392;-95
2021/07/13 06:35:35;;;;;;;12.07;6.85;;;21.90;99.90;;;;;;6191000;23;20852;-95
2021/07/13 06:38:05;;;;;;;7.47;6.47;;;21.90;99.90;;;;;;6190191;23;20390;-95
2021/07/13 06:40:32;;;;;;;8.85;6.40;;;22.00;99.90;;;;;;6189616;23;20411;-96
2021/07/13 06:43:00;;;;;;;9.77;7.00;;;22.00;99.90;;;;;;6190597;23;20396;-95
2021/07/13 06:45:27;;;;;;;14.93;7.05;;;22.10;99.90;;;;;;6189667;23;20391;-96
2021/07/13 06:47:57;;;;;;;11.00;6.80;;;22.20;99.90;;;;;;6190568;23;20403;-93
2021/07/13 06:50:25;;;;;;;8.83;6.90;;;22.30;99.90;;;;;;6189722;23;20394;-94
2021/07/13 06:52:53;;;;;;;11.32;7.35;;;22.40;99.90;;;;;;6189826;23;20793;-94
2021/07/13 06:55:26;;;;;;;10.80;6.63;;;22.50;99.90;;;;;;6190653;23;20694;-96
2021/07/13 07:00:49;;;;;;;10.60;7.05;;;22.60;99.90;;;;;;6161557;23;20422;-95
2021/07/13 07:06:17;;;;;;;10.18;6.85;;;22.70;99.90;;;;;;6202683;23;20391;-96
2021/07/13 07:08:45;;;;;;;9.15;6.85;;;22.90;99.90;;;;;;6201773;23;20392;-96
2021/07/13 07:46:47;;;;;;;12.70;7.05;;;23.50;99.90;;;;;;6138114;23;20394;-96
2021/07/13 07:49:14;;;;;;;7.93;6.45;;;23.50;99.90;;;;;;6142967;23;20482;-90
2021/07/13 07:51:41;;;;;;;10.63;7.05;;;23.50;99.90;;;;;;6156254;23;20468;-89
2021/07/13 07:54:10;;;;;;;8.80;7.43;;;23.60;99.90;;;;;;6155889;23;20461;-90
2021/07/13 07:56:37;;;;;;;8.95;7.10;;;23.80;99.90;;;;;;6156128;23;20390;-93
2021/07/13 07:59:04;;;;;;;9.97;7.30;;;23.70;99.90;;;;;;6181905;23;20406;-91
2021/07/13 08:01:31;;;;;;;38.97;22.70;;;23.90;99.90;;;;;;6159540;23;20455;-91
2021/07/13 08:03:58;;;;;;;8.23;7.43;;;24.00;99.90;;;;;;6156175;23;20429;-92
2021/07/13 08:06:26;;;;;;;13.50;7.70;;;24.20;99.90;;;;;;6156275;23;20876;-93
2021/07/13 08:08:52;;;;;;;14.70;9.45;;;24.30;99.90;;;;;;6156773;23;20391;-91
2021/07/13 08:11:19;;;;;;;18.23;9.75;;;24.30;99.90;;;;;;6155982;23;20391;-92
2021/07/13 08:13:46;;;;;;;18.35;10.20;;;24.50;99.90;;;;;;6156238;23;20406;-91
2021/07/13 08:16:14;;;;;;;13.02;7.47;;;24.60;99.90;;;;;;6156961;23;20757;-94
2021/07/13 08:18:41;;;;;;;10.38;8.20;;;24.70;99.90;;;;;;6158812;23;20769;-94
2021/07/13 09:00:42;;;;;;;13.75;9.15;;;25.40;99.90;;;;;;6124037;23;20362;-96
2021/07/13 09:08:58;;;;;;;9.40;7.72;;;25.80;99.90;;;;;;6161138;23;20406;-96
2021/07/13 09:11:27;;;;;;;11.80;7.30;;;25.90;99.90;;;;;;6136699;23;20935;-96
2021/07/13 09:13:59;;;;;;;10.00;7.38;;;25.90;99.90;;;;;;6140086;23;20473;-95
2021/07/13 09:16:41;;;;;;;11.43;6.90;;;26.00;99.90;;;;;;6152014;23;20379;-96
2021/07/13 09:19:13;;;;;;;9.97;6.73;;;26.30;99.90;;;;;;6145625;23;20417;-95
2021/07/13 09:21:41;;;;;;;14.93;7.03;;;26.70;99.90;;;;;;6139970;23;20450;-96
2021/07/13 09:24:38;;;;;;;9.90;7.20;;;27.10;99.90;;;;;;6143181;23;20398;-95
2021/07/13 09:36:15;;;;;;;13.00;6.50;;;27.50;99.90;;;;;;6161720;23;20486;-95
2021/07/13 09:38:54;;;;;;;19.55;7.53;;;27.60;99.90;;;;;;6170115;23;20442;-96
2021/07/13 09:41:35;;;;;;;18.70;6.30;;;27.60;99.90;;;;;;6164666;23;20414;-96
2021/07/13 09:44:05;;;;;;;17.27;6.67;;;27.60;99.90;;;;;;6162135;23;20440;-96
2021/07/13 09:46:47;;;;;;;14.52;6.40;;;27.50;99.90;;;;;;6158072;23;20411;-96
2021/07/13 09:49:24;;;;;;;16.57;6.67;;;27.60;99.90;;;;;;6156629;23;20391;-96
2021/07/13 09:52:05;;;;;;;31.60;6.65;;;27.90;99.90;;;;;;6139247;23;20450;-94
2021/07/13 09:54:39;;;;;;;23.45;6.28;;;27.80;99.90;;;;;;6161715;23;20401;-94
2021/07/13 09:57:26;;;;;;;23.23;6.35;;;27.60;99.90;;;;;;6162278;23;20394;-95
2021/07/13 09:59:58;;;;;;;25.20;6.28;;;27.60;99.90;;;;;;6160911;23;20930;-94
2021/07/13 10:02:26;;;;;;;34.55;6.35;;;27.50;99.90;;;;;;6161510;23;20857;-94
2021/07/13 10:04:55;;;;;;;26.70;6.15;;;27.60;99.90;;;;;;6160541;23;20385;-95
2021/07/13 10:07:27;;;;;;;36.92;7.13;;;27.90;99.90;;;;;;6161245;23;20399;-95
2021/07/13 10:10:03;;;;;;;23.60;6.40;;;28.00;99.90;;;;;;6160556;23;20540;-95
2021/07/13 10:12:31;;;;;;;23.80;7.15;;;28.00;99.90;;;;;;6160852;23;20870;-96
2021/07/13 10:14:59;;;;;;;26.33;7.05;;;28.10;99.90;;;;;;6160643;23;20408;-94
2021/07/13 10:17:29;;;;;;;24.73;6.68;;;28.10;99.90;;;;;;6160304;23;20476;-95
2021/07/13 10:20:01;;;;;;;28.70;6.55;;;28.20;99.90;;;;;;6160200;23;20400;-95
2021/07/13 10:22:29;;;;;;;29.70;6.35;;;28.20;99.90;;;;;;6160545;23;20402;-94
2021/07/13 10:24:59;;;;;;;28.83;6.53;;;28.20;99.90;;;;;;6160005;23;20388;-96
2021/07/13 10:27:35;;;;;;;29.25;7.10;;;28.10;99.90;;;;;;6159972;23;20484;-95
2021/07/13 10:30:25;;;;;;;33.87;7.00;;;28.30;99.90;;;;;;6161660;23;20409;-95
2021/07/13 10:32:53;;;;;;;26.60;6.45;;;28.30;99.90;;;;;;6174015;23;20439;-94
2021/07/13 10:35:55;;;;;;;30.10;6.85;;;28.50;99.90;;;;;;6207765;23;20403;-95
2021/07/13 10:38:27;;;;;;;23.85;6.65;;;28.40;99.90;;;;;;6206936;23;20501;-96
2021/07/13 10:41:14;;;;;;;27.30;6.43;;;28.50;99.90;;;;;;6193968;23;20385;-96
2021/07/13 11:34:40;;;;;;;29.58;7.13;;;29.70;99.90;;;;;;6192124;23;20406;31
2021/07/13 11:37:24;;;;;;;21.77;6.57;;;30.10;99.90;;;;;;6051081;23;20388;-95
2021/07/13 11:40:01;;;;;;;34.30;7.18;;;30.20;99.90;;;;;;6048701;23;20399;-96
2021/07/13 11:43:08;;;;;;;30.90;6.70;;;30.20;99.90;;;;;;6077642;23;20415;-96
2021/07/13 12:18:19;;;;;;;22.08;7.78;;;30.70;99.90;;;;;;6167635;23;20433;-95
2021/07/13 12:21:21;;;;;;;20.73;7.50;;;30.60;99.90;;;;;;6168236;23;20970;-96
2021/07/13 12:24:08;;;;;;;17.33;7.68;;;30.60;99.90;;;;;;6131484;23;20885;-95
2021/07/13 12:27:07;;;;;;;27.05;7.55;;;30.60;99.90;;;;;;6168216;23;20412;-96
2021/07/13 12:29:53;;;;;;;20.65;7.80;;;30.70;99.90;;;;;;6171558;23;20735;-96
2021/07/13 12:32:33;;;;;;;22.77;7.70;;;30.60;99.90;;;;;;6169072;23;20393;-96
2021/07/13 12:35:19;;;;;;;20.65;7.95;;;30.40;99.90;;;;;;6166805;23;20401;-96
2021/07/13 12:38:02;;;;;;;19.17;7.95;;;30.20;99.90;;;;;;6194776;23;20784;-96
2021/07/13 12:40:30;;;;;;;19.98;8.15;;;29.90;99.90;;;;;;6167787;23;20461;-93
2021/07/13 12:43:08;;;;;;;16.48;8.23;;;29.90;99.90;;;;;;6166000;23;20396;-94
2021/07/13 12:45:35;;;;;;;22.80;9.05;;;29.90;99.90;;;;;;6165795;23;20389;-95
2021/07/13 12:48:06;;;;;;;27.27;9.23;;;29.80;99.90;;;;;;6164735;23;20420;-92
2021/07/13 12:50:33;;;;;;;20.40;8.70;;;29.40;99.90;;;;;;6165532;23;20419;-95
2021/07/13 12:53:09;;;;;;;18.05;9.15;;;29.00;99.90;;;;;;6164457;23;20389;-95
2021/07/13 12:55:40;;;;;;;25.58;9.57;;;28.90;99.90;;;;;;6162337;23;20405;-92
2021/07/13 12:58:13;;;;;;;22.85;9.55;;;28.90;99.90;;;;;;6163431;23;20405;-94
2021/07/13 13:00:46;;;;;;;17.27;10.07;;;28.70;99.90;;;;;;6167232;23;20432;-95
2021/07/13 13:03:21;;;;;;;19.53;9.70;;;28.80;99.90;;;;;;6179290;23;20392;-93
2021/07/13 13:05:57;;;;;;;19.40;10.23;;;29.20;99.90;;;;;;6164042;23;20396;-92
2021/07/13 13:08:36;;;;;;;17.65;9.77;;;29.70;99.90;;;;;;6162050;23;20447;-92
2021/07/13 13:11:19;;;;;;;24.35;10.07;;;29.80;99.90;;;;;;6161058;23;20389;-92
2021/07/13 13:13:47;;;;;;;24.60;10.38;;;30.00;99.90;;;;;;6161171;23;20401;-93
2021/07/13 13:16:23;;;;;;;21.83;10.52;;;29.70;99.90;;;;;;6163688;23;20754;-93
2021/07/13 13:18:54;;;;;;;25.83;10.57;;;29.40;99.90;;;;;;6165342;23;20921;-92
2021/07/13 13:21:23;;;;;;;19.83;10.10;;;29.10;99.90;;;;;;6162463;23;20381;-91
2021/07/13 13:23:51;;;;;;;21.83;11.20;;;29.10;99.90;;;;;;6162399;23;20451;-92
2021/07/13 13:26:19;;;;;;;29.20;10.73;;;29.00;99.90;;;;;;6163092;23;20876;-92
2021/07/13 13:28:46;;;;;;;28.50;11.32;;;29.20;99.90;;;;;;6162068;23;20391;-93
2021/07/13 13:31:13;;;;;;;19.83;10.88;;;29.10;99.90;;;;;;6162117;23;20386;-91
2021/07/13 13:33:52;;;;;;;24.93;10.77;;;28.80;99.90;;;;;;6163717;23;20385;-96
2021/07/13 13:36:28;;;;;;;23.50;11.15;;;29.00;99.90;;;;;;6170152;23;20715;-96
2021/07/13 13:39:14;;;;;;;23.83;11.65;;;29.00;99.90;;;;;;6147067;23;20393;-95
2021/07/13 13:41:51;;;;;;;25.60;11.30;;;29.10;99.90;;;;;;6145581;23;20390;-94
2021/07/13 13:44:22;;;;;;;23.40;11.73;;;29.10;99.90;;;;;;6144252;23;20387;-95
2021/07/13 13:46:51;;;;;;;25.60;12.35;;;28.60;99.90;;;;;;6141199;23;20441;-94
2021/07/13 13:49:19;;;;;;;22.63;11.52;;;28.10;99.90;;;;;;6139382;23;20375;-94
2021/07/13 13:51:46;;;;;;;22.17;11.43;;;27.90;99.90;;;;;;6141316;23;20402;-95
2021/07/13 13:54:16;;;;;;;21.05;11.93;;;27.90;99.90;;;;;;6138864;23;20493;-94
2021/07/13 13:56:43;;;;;;;24.13;11.90;;;27.90;99.90;;;;;;6162145;23;20907;-94
2021/07/13 13:59:13;;;;;;;26.17;12.67;;;28.00;99.90;;;;;;6142080;23;20391;-96
2021/07/13 14:01:51;;;;;;;21.50;12.50;;;27.70;99.90;;;;;;6139761;23;21054;-95
2021/07/13 14:04:22;;;;;;;21.73;12.30;;;27.30;99.90;;;;;;6137459;23;20386;-94
2021/07/13 14:06:52;;;;;;;23.30;13.48;;;26.90;99.90;;;;;;6137014;23;20391;-96
2021/07/13 14:09:20;;;;;;;25.88;12.95;;;26.50;99.90;;;;;;6135432;23;20406;-95
2021/07/13 14:12:04;;;;;;;26.55;12.85;;;26.20;99.90;;;;;;6136353;23;20476;-94
2021/07/13 14:14:32;;;;;;;23.57;12.10;;;25.90;99.90;;;;;;6155714;23;20860;-94
2021/07/13 14:16:59;;;;;;;25.45;12.35;;;25.70;99.90;;;;;;6131054;23;20394;-94
2021/07/13 14:19:27;;;;;;;27.23;12.20;;;25.50;99.90;;;;;;6131279;23;20391;-94
2021/07/13 14:21:54;;;;;;;29.88;12.48;;;25.30;99.90;;;;;;6131110;23;20387;-94
2021/07/13 14:24:21;;;;;;;25.30;12.07;;;25.20;99.90;;;;;;6130758;23;20475;-93
2021/07/13 14:26:48;;;;;;;27.10;12.75;;;25.00;99.90;;;;;;6129966;23;20895;-94
2021/07/13 14:29:15;;;;;;;28.83;12.57;;;24.90;99.90;;;;;;6131264;23;20387;-94
2021/07/13 14:31:43;;;;;;;24.27;12.20;;;24.80;99.90;;;;;;6156944;23;20458;-94
2021/07/13 14:34:10;;;;;;;22.42;12.05;;;24.60;99.90;;;;;;6130995;23;20395;-94
2021/07/13 14:36:37;;;;;;;25.65;12.50;;;24.50;99.90;;;;;;6130392;23;20926;-94
2021/07/13 14:39:05;;;;;;;24.40;11.45;;;24.40;99.90;;;;;;6131665;23;20402;-96
2021/07/13 14:41:46;;;;;;;23.55;11.20;;;24.30;99.90;;;;;;6160918;23;20379;-94
2021/07/13 14:44:13;;;;;;;20.50;11.43;;;24.00;99.90;;;;;;6153949;23;20426;-94
2021/07/13 14:46:40;;;;;;;18.98;11.20;;;23.80;99.90;;;;;;6140949;23;20422;-93
2021/07/13 14:49:09;;;;;;;19.33;10.70;;;23.70;99.90;;;;;;6131469;23;20387;-93
2021/07/13 14:52:15;;;;;;;26.48;10.95;;;23.60;99.90;;;;;;6139913;23;20495;-96
2021/07/13 14:55:05;;;;;;;24.17;11.43;;;23.50;99.90;;;;;;6143087;23;21866;-95
2021/07/13 14:57:43;;;;;;;21.00;11.13;;;23.30;99.90;;;;;;6120121;23;20394;31
2021/07/13 15:00:11;;;;;;;21.95;11.75;;;23.20;99.90;;;;;;6105984;23;20470;-96
2021/07/13 15:02:39;;;;;;;23.73;11.50;;;23.10;99.90;;;;;;6131123;23;20394;-96
2021/07/13 15:05:50;;;;;;;20.58;11.57;;;23.10;99.90;;;;;;6132214;23;20395;-93
2021/07/13 15:08:33;;;;;;;19.20;10.90;;;23.10;99.90;;;;;;6157513;23;20390;-94
2021/07/13 15:13:44;;;;;;;21.02;11.23;;;23.10;99.90;;;;;;6136907;23;20389;-95
2021/07/13 15:16:21;;;;;;;22.00;10.88;;;23.00;99.90;;;;;;6196523;23;20395;-96
2021/07/13 15:19:31;;;;;;;18.30;10.65;;;22.70;99.90;;;;;;6162729;23;20472;-96
2021/07/13 15:22:13;;;;;;;20.90;11.27;;;22.40;99.90;;;;;;6167325;23;20385;-96
2021/07/13 15:24:50;;;;;;;21.00;10.23;;;22.30;99.90;;;;;;6164771;23;20392;-96
2021/07/13 16:55:38;;;;;;;12.95;8.98;;;16.10;99.90;;;;;;6190917;22;20482;-96
2021/07/13 16:58:22;;;;;;;16.23;9.85;;;15.80;99.90;;;;;;6202302;23;20390;-96
2021/07/13 17:00:52;;;;;;;13.40;9.32;;;15.70;99.90;;;;;;6197710;23;20376;-95
2021/07/13 17:03:32;;;;;;;19.05;11.43;;;15.50;99.90;;;;;;6195621;23;20393;-96
2021/07/13 17:06:05;;;;;;;18.60;11.35;;;15.40;99.90;;;;;;6202440;23;20397;-96
2021/07/13 17:08:41;;;;;;;13.82;9.23;;;15.40;99.90;;;;;;6195421;23;20944;-96
2021/07/13 17:11:08;;;;;;;16.63;9.75;;;15.30;99.90;;;;;;6194262;23;20485;-96
2021/07/13 17:13:51;;;;;;;16.15;8.55;;;15.30;99.90;;;;;;6199819;23;20407;-95
2021/07/13 17:22:16;;;;;;;12.25;8.52;;;15.00;99.90;;;;;;6176832;23;20393;-96
2021/07/13 17:28:16;;;;;;;14.70;7.95;;;14.90;99.90;;;;;;6109706;23;20404;-95
